Time;durP1;ratioP1;P1;durP2;ratioP2;P2;SDS_P1;SDS_P2;PMS_P1;PMS_P2;Temp;Humidity;BMP_temperature;BMP_pressure;BME280_temperature;BME280_humidity;BME280_pressure;Samples;Min_cycle;Max_cycle;Signal;HPM_P1;HPM_P2
2021/07/31 00:00:18;;;;;;;5.82;2.70;;;17.80;98.30;;;;;;5049919;28;20066;-43
2021/07/31 00:02:44;;;;;;;6.80;2.80;;;17.80;98.40;;;;;;5050694;28;20064;-43
2021/07/31 00:05:10;;;;;;;7.13;2.78;;;17.80;98.50;;;;;;5049988;28;20021;-43
2021/07/31 00:07:41;;;;;;;4.85;2.30;;;17.80;98.50;;;;;;5050217;28;20021;-42
2021/07/31 00:10:07;;;;;;;5.40;2.70;;;17.70;98.50;;;;;;5051252;28;20048;-42
2021/07/31 00:12:32;;;;;;;5.25;2.90;;;17.70;98.80;;;;;;5050402;28;20055;-42
2021/07/31 00:15:00;;;;;;;5.22;2.30;;;17.70;98.80;;;;;;5050535;28;20453;-43
2021/07/31 00:17:26;;;;;;;6.85;2.85;;;17.80;98.90;;;;;;5050942;28;20027;-43
2021/07/31 00:19:51;;;;;;;6.45;2.63;;;17.70;99.00;;;;;;5050842;28;20103;-42
2021/07/31 00:22:17;;;;;;;8.77;2.70;;;17.70;99.10;;;;;;5050741;28;20056;-43
2021/07/31 00:24:42;;;;;;;9.00;2.65;;;17.70;99.10;;;;;;5050888;28;20036;-43
2021/07/31 00:27:11;;;;;;;6.95;3.00;;;17.70;99.20;;;;;;5049847;28;20071;-43
2021/07/31 00:29:36;;;;;;;7.35;2.90;;;17.70;99.50;;;;;;5050997;28;20480;-42
2021/07/31 00:32:02;;;;;;;5.53;2.20;;;17.70;99.40;;;;;;5050762;28;20033;-41
2021/07/31 00:34:27;;;;;;;8.55;3.30;;;17.70;99.40;;;;;;5049570;28;20056;-42
2021/07/31 00:36:53;;;;;;;6.05;2.60;;;17.70;99.50;;;;;;5051121;28;20029;-42
2021/07/31 00:39:39;;;;;;;5.20;2.40;;;17.80;99.50;;;;;;5050013;28;20476;-41
2021/07/31 00:42:05;;;;;;;7.15;2.50;;;17.80;99.50;;;;;;5049439;28;20260;-42
2021/07/31 00:44:31;;;;;;;5.10;2.22;;;17.80;99.60;;;;;;5050296;28;20048;-41
2021/07/31 00:46:56;;;;;;;6.13;2.60;;;17.80;99.60;;;;;;5050734;28;20045;-41
2021/07/31 00:49:22;;;;;;;9.63;2.75;;;17.80;99.70;;;;;;5049127;28;20051;-41
2021/07/31 00:51:51;;;;;;;6.82;2.78;;;17.80;99.80;;;;;;5050340;28;20044;-42
2021/07/31 00:54:16;;;;;;;5.65;2.38;;;17.80;99.80;;;;;;5050544;28;20060;-42
2021/07/31 00:56:43;;;;;;;7.07;2.70;;;17.80;99.90;;;;;;5049514;28;20055;-42
2021/07/31 00:59:10;;;;;;;7.90;2.60;;;17.80;99.90;;;;;;5038352;28;20017;-43
2021/07/31 01:01:36;;;;;;;6.57;2.70;;;17.80;99.90;;;;;;5049977;28;20100;-42
2021/07/31 01:04:04;;;;;;;7.10;3.08;;;17.80;99.90;;;;;;5049084;28;20113;-42
2021/07/31 01:06:29;;;;;;;5.90;2.55;;;17.80;99.90;;;;;;5049299;28;20618;-43
2021/07/31 01:08:55;;;;;;;6.60;2.75;;;17.70;99.90;;;;;;5050248;28;20116;-43
2021/07/31 01:11:20;;;;;;;8.88;3.45;;;17.70;99.90;;;;;;5049697;28;20037;-43
2021/07/31 01:13:50;;;;;;;6.43;2.83;;;17.70;99.90;;;;;;5049767;28;20029;-41
2021/07/31 01:16:15;;;;;;;5.82;2.55;;;17.70;99.90;;;;;;5049480;28;20131;-40
2021/07/31 01:18:41;;;;;;;7.22;2.90;;;17.70;99.90;;;;;;5048711;28;20140;-40
2021/07/31 01:21:07;;;;;;;6.18;2.85;;;17.70;99.90;;;;;;5050163;28;20222;-42
2021/07/31 01:23:32;;;;;;;5.15;2.60;;;17.70;99.90;;;;;;5048559;28;21242;-42
2021/07/31 01:25:58;;;;;;;9.40;3.22;;;17.70;99.90;;;;;;5049655;28;20029;-43
2021/07/31 01:28:25;;;;;;;7.15;3.05;;;17.80;99.90;;;;;;5049423;28;20021;-42
2021/07/31 01:30:50;;;;;;;7.45;3.00;;;17.70;99.90;;;;;;5049575;28;20044;-41
2021/07/31 01:33:16;;;;;;;9.27;3.08;;;17.80;99.90;;;;;;5049280;28;20013;-44
2021/07/31 01:35:41;;;;;;;5.55;2.88;;;17.70;99.90;;;;;;5049128;28;20075;-43
2021/07/31 01:38:07;;;;;;;8.40;3.00;;;17.70;99.90;;;;;;5049027;28;20440;-42
2021/07/31 01:40:33;;;;;;;10.85;4.00;;;17.70;99.90;;;;;;5049089;28;20033;-43
2021/07/31 01:42:58;;;;;;;11.38;3.85;;;17.60;99.90;;;;;;5048660;28;20013;-41
2021/07/31 01:45:25;;;;;;;11.38;4.07;;;17.50;99.90;;;;;;5048322;28;20025;-42
2021/07/31 01:47:50;;;;;;;8.02;3.40;;;17.50;99.90;;;;;;5049841;28;20587;-43
2021/07/31 01:50:17;;;;;;;8.27;3.80;;;17.40;99.90;;;;;;5049704;28;20480;-43
2021/07/31 01:52:43;;;;;;;8.98;3.85;;;17.40;99.90;;;;;;5048464;28;20017;-43
2021/07/31 01:55:10;;;;;;;6.45;3.70;;;17.30;99.90;;;;;;5049312;28;20045;-43
2021/07/31 01:57:35;;;;;;;8.88;3.90;;;17.30;99.90;;;;;;5049356;28;20486;-43
2021/07/31 02:00:01;;;;;;;8.30;3.75;;;17.20;99.90;;;;;;5048127;28;20025;-43
2021/07/31 02:02:26;;;;;;;8.52;3.83;;;17.20;99.90;;;;;;5048604;28;20424;-42
2021/07/31 02:04:52;;;;;;;9.52;3.83;;;17.10;99.90;;;;;;5049074;28;20113;-45
2021/07/31 02:07:18;;;;;;;6.25;3.80;;;17.10;99.90;;;;;;5048620;28;20052;-47
2021/07/31 02:09:46;;;;;;;6.68;3.75;;;17.00;99.90;;;;;;5048771;28;20111;-47
2021/07/31 02:12:12;;;;;;;9.88;3.65;;;17.00;99.90;;;;;;5048982;28;20419;-44
2021/07/31 02:14:37;;;;;;;9.65;3.88;;;16.90;99.90;;;;;;5049014;28;20033;-44
2021/07/31 02:17:03;;;;;;;11.77;4.13;;;16.80;99.90;;;;;;5049126;28;20116;-42
2021/07/31 02:19:30;;;;;;;7.70;3.80;;;16.70;99.90;;;;;;5047811;28;20156;-44
2021/07/31 02:21:56;;;;;;;13.18;5.05;;;16.70;99.90;;;;;;5038383;28;20432;-45
2021/07/31 02:24:22;;;;;;;10.60;4.43;;;16.70;99.90;;;;;;5048197;28;20051;-44
2021/07/31 02:26:47;;;;;;;7.15;4.13;;;16.70;99.90;;;;;;5048984;28;20057;-44
2021/07/31 02:29:13;;;;;;;9.30;4.70;;;16.70;99.90;;;;;;5048225;28;20096;-44
2021/07/31 02:31:39;;;;;;;11.75;4.40;;;16.80;99.90;;;;;;5048496;28;20033;-41
2021/07/31 02:34:04;;;;;;;7.10;3.63;;;16.80;99.90;;;;;;5048672;28;20098;-45
2021/07/31 02:36:30;;;;;;;8.18;4.03;;;16.80;99.90;;;;;;5048075;28;20037;-45
2021/07/31 02:38:55;;;;;;;11.18;4.63;;;16.80;99.90;;;;;;5049487;28;20017;-44
2021/07/31 02:41:21;;;;;;;9.18;4.18;;;16.80;99.90;;;;;;5047377;28;20055;-44
2021/07/31 02:43:46;;;;;;;6.60;3.85;;;16.80;99.90;;;;;;5049336;28;20021;-45
2021/07/31 02:46:12;;;;;;;7.43;4.30;;;16.80;99.90;;;;;;5048384;28;20020;-45
2021/07/31 02:48:38;;;;;;;7.25;3.92;;;16.80;99.90;;;;;;5047585;28;20158;-44
2021/07/31 02:51:06;;;;;;;8.20;3.83;;;16.90;99.90;;;;;;5048421;28;20476;-44
2021/07/31 02:53:31;;;;;;;11.90;4.88;;;16.80;99.90;;;;;;5047960;28;20074;-45
2021/07/31 02:55:57;;;;;;;8.10;3.97;;;16.90;99.90;;;;;;5048244;28;20080;-44
2021/07/31 02:58:23;;;;;;;9.20;4.40;;;16.90;99.90;;;;;;5047988;28;20515;-43
2021/07/31 03:00:49;;;;;;;10.55;4.20;;;16.90;99.90;;;;;;5048144;28;20017;-44
2021/07/31 03:03:21;;;;;;;12.30;5.03;;;17.00;99.90;;;;;;5048254;28;20040;-42
2021/07/31 03:05:57;;;;;;;6.18;4.70;;;17.00;99.90;;;;;;5048511;28;20025;-43
2021/07/31 03:08:23;;;;;;;12.57;4.50;;;17.00;99.90;;;;;;5048020;28;20025;-44
2021/07/31 03:11:03;;;;;;;11.35;4.32;;;17.00;99.90;;;;;;5048527;28;20086;-44
2021/07/31 03:13:29;;;;;;;9.93;4.15;;;16.90;99.90;;;;;;5050954;28;20021;-43
2021/07/31 03:15:57;;;;;;;7.55;4.47;;;16.90;99.90;;;;;;5051556;28;20037;-44
2021/07/31 03:18:23;;;;;;;7.38;3.95;;;16.80;99.90;;;;;;5048425;28;20132;-45
2021/07/31 03:20:51;;;;;;;9.88;4.82;;;16.80;99.90;;;;;;5052768;28;20116;-44
2021/07/31 03:23:19;;;;;;;11.35;4.80;;;16.80;99.90;;;;;;5051489;28;20529;-44
2021/07/31 03:25:45;;;;;;;11.40;5.07;;;16.70;99.90;;;;;;5051772;28;20117;-45
2021/07/31 03:28:12;;;;;;;9.52;4.60;;;16.60;99.90;;;;;;5051735;28;20472;-44
2021/07/31 03:30:43;;;;;;;10.98;5.28;;;16.60;99.90;;;;;;5050834;28;20503;-45
2021/07/31 03:33:09;;;;;;;10.13;4.60;;;16.50;99.90;;;;;;5051741;28;20036;-43
2021/07/31 03:35:36;;;;;;;8.40;4.93;;;16.50;99.90;;;;;;5051167;28;20516;-45
2021/07/31 03:38:01;;;;;;;7.45;4.93;;;16.50;99.90;;;;;;5051631;28;20017;-44
2021/07/31 03:40:27;;;;;;;6.45;5.05;;;16.50;99.90;;;;;;5050908;28;20435;-43
2021/07/31 03:42:52;;;;;;;7.70;4.90;;;16.40;99.90;;;;;;5051327;28;20017;-42
2021/07/31 03:45:18;;;;;;;9.57;5.68;;;16.40;99.90;;;;;;5051668;28;20025;-39
2021/07/31 03:47:43;;;;;;;8.80;5.43;;;16.40;99.90;;;;;;5050934;28;20017;-41
2021/07/31 03:50:12;;;;;;;9.60;5.72;;;16.30;99.90;;;;;;5051268;28;20031;-40
2021/07/31 03:52:38;;;;;;;10.52;7.05;;;16.30;99.90;;;;;;5050935;28;20339;-42
2021/07/31 03:55:10;;;;;;;10.95;6.38;;;16.30;99.90;;;;;;5051858;28;20025;-42
2021/07/31 03:57:36;;;;;;;7.85;6.30;;;16.20;99.90;;;;;;5051132;28;20110;-42
2021/07/31 04:00:04;;;;;;;10.52;7.15;;;16.20;99.90;;;;;;5051415;28;20103;-41
2021/07/31 04:02:29;;;;;;;10.27;6.55;;;16.20;99.90;;;;;;5050912;28;20389;-42
2021/07/31 04:04:55;;;;;;;10.13;5.47;;;16.20;99.90;;;;;;5051001;28;20009;-41
2021/07/31 04:07:21;;;;;;;7.65;5.50;;;16.20;99.90;;;;;;5050726;28;20502;-42
2021/07/31 04:09:47;;;;;;;8.32;5.80;;;16.20;99.90;;;;;;5051617;28;21019;-42
2021/07/31 04:12:12;;;;;;;7.80;6.00;;;16.20;99.90;;;;;;5051385;28;20417;-42
2021/07/31 04:14:44;;;;;;;10.80;6.22;;;16.20;99.90;;;;;;5050767;28;20571;-42
2021/07/31 04:17:11;;;;;;;8.60;6.43;;;16.20;99.90;;;;;;5051797;28;20032;-42
2021/07/31 04:19:40;;;;;;;11.77;5.57;;;16.20;99.90;;;;;;5050012;28;20017;-42
2021/07/31 04:22:05;;;;;;;6.40;4.82;;;16.30;99.90;;;;;;5050868;28;20472;-42
2021/07/31 04:24:31;;;;;;;10.15;5.78;;;16.30;99.90;;;;;;5049582;28;20027;-42
2021/07/31 04:26:57;;;;;;;12.07;7.22;;;16.30;99.90;;;;;;5050592;28;20021;-41
2021/07/31 04:29:22;;;;;;;7.05;5.13;;;16.30;99.90;;;;;;5050393;28;20032;-42
2021/07/31 04:31:54;;;;;;;8.20;5.18;;;16.30;99.90;;;;;;5050718;28;20025;-42
2021/07/31 04:34:20;;;;;;;8.73;5.43;;;16.40;99.90;;;;;;5050127;28;20048;-42
2021/07/31 04:36:49;;;;;;;7.70;5.32;;;16.40;99.90;;;;;;5050473;28;20385;-42
2021/07/31 04:39:14;;;;;;;7.53;5.25;;;16.40;99.90;;;;;;5050183;28;20023;-42
2021/07/31 04:41:43;;;;;;;8.15;5.70;;;16.40;99.90;;;;;;5049252;28;20021;-42
2021/07/31 04:44:09;;;;;;;7.55;5.00;;;16.40;99.90;;;;;;5049857;28;20028;-43
2021/07/31 04:46:34;;;;;;;7.03;4.80;;;16.40;99.90;;;;;;5050236;28;20025;-43
2021/07/31 04:49:05;;;;;;;8.57;4.93;;;16.50;99.90;;;;;;5050131;28;20032;-43
2021/07/31 04:51:31;;;;;;;7.70;4.28;;;16.40;99.90;;;;;;5046864;28;20075;-43
2021/07/31 04:53:56;;;;;;;9.63;5.25;;;16.40;99.90;;;;;;5049903;28;20025;-43
2021/07/31 04:56:22;;;;;;;8.40;5.03;;;16.40;99.90;;;;;;5049316;28;20029;-41
2021/07/31 04:58:47;;;;;;;5.95;4.30;;;16.40;99.90;;;;;;5049981;28;20033;-41
2021/07/31 05:01:13;;;;;;;6.32;4.95;;;16.40;99.90;;;;;;5049231;28;20037;-43
2021/07/31 05:03:39;;;;;;;8.68;4.22;;;16.40;99.90;;;;;;5049247;28;20021;-41
2021/07/31 05:06:08;;;;;;;6.57;4.13;;;16.40;99.90;;;;;;5049888;28;20017;-42
2021/07/31 05:08:33;;;;;;;8.48;4.28;;;16.50;99.90;;;;;;5048580;28;20029;-42
2021/07/31 05:11:07;;;;;;;6.95;3.55;;;16.40;99.90;;;;;;5050137;28;20028;-42
2021/07/31 05:13:34;;;;;;;6.57;4.25;;;16.50;99.90;;;;;;5049445;28;20067;-43
2021/07/31 05:16:00;;;;;;;6.68;3.53;;;16.60;99.90;;;;;;5049133;28;20037;-43
2021/07/31 05:18:25;;;;;;;5.63;3.78;;;16.60;99.90;;;;;;5049259;28;20017;-43
2021/07/31 05:20:51;;;;;;;5.93;4.07;;;16.60;99.90;;;;;;5049898;28;20115;-42
2021/07/31 05:23:19;;;;;;;7.72;4.32;;;16.60;99.90;;;;;;5049383;28;20021;-43
2021/07/31 05:25:45;;;;;;;7.28;4.28;;;16.60;99.90;;;;;;5049262;28;20050;-43
2021/07/31 05:28:12;;;;;;;6.75;4.00;;;16.60;99.90;;;;;;5049615;28;20032;-42
2021/07/31 05:30:42;;;;;;;7.25;3.85;;;16.60;99.90;;;;;;5048557;28;20034;-42
2021/07/31 05:33:08;;;;;;;4.50;3.22;;;16.70;99.90;;;;;;5049400;28;20025;-41
2021/07/31 05:35:33;;;;;;;4.32;3.10;;;16.70;99.90;;;;;;5047821;28;20396;-42
2021/07/31 05:38:00;;;;;;;5.13;3.47;;;16.80;99.90;;;;;;5048848;28;20017;-42
2021/07/31 05:40:25;;;;;;;5.50;3.40;;;16.70;99.90;;;;;;5049031;28;20051;-42
2021/07/31 05:42:51;;;;;;;4.82;3.28;;;16.70;99.90;;;;;;5049190;28;20045;-41
2021/07/31 05:45:16;;;;;;;7.05;3.53;;;16.60;99.90;;;;;;5048602;28;20021;-42
2021/07/31 05:47:45;;;;;;;6.30;3.88;;;16.60;99.90;;;;;;5049037;28;20024;-42
2021/07/31 05:50:11;;;;;;;4.43;3.47;;;16.60;99.90;;;;;;5029120;28;20060;-42
2021/07/31 05:52:38;;;;;;;4.85;3.30;;;16.60;99.90;;;;;;5042575;28;20028;-43
2021/07/31 05:55:04;;;;;;;4.18;3.78;;;16.60;99.90;;;;;;5048762;28;20120;-41
2021/07/31 05:57:36;;;;;;;5.30;4.10;;;16.60;99.90;;;;;;5047358;28;20033;-42
2021/07/31 06:00:02;;;;;;;7.77;4.50;;;16.70;99.90;;;;;;5049144;28;20029;-42
2021/07/31 06:02:28;;;;;;;7.45;4.90;;;16.70;99.90;;;;;;5047857;28;20283;-43
2021/07/31 06:04:59;;;;;;;5.97;4.38;;;16.70;99.90;;;;;;5049251;28;20029;-43
2021/07/31 06:07:24;;;;;;;9.05;4.43;;;16.70;99.90;;;;;;5048097;28;20020;-44
2021/07/31 06:09:56;;;;;;;6.82;4.50;;;16.70;99.90;;;;;;5048992;28;20025;-43
2021/07/31 06:12:22;;;;;;;6.93;4.53;;;16.70;99.90;;;;;;5048307;28;20143;-41
2021/07/31 06:14:51;;;;;;;5.72;4.28;;;16.70;99.90;;;;;;5048992;28;20032;-44
2021/07/31 06:17:16;;;;;;;5.32;4.43;;;16.80;99.90;;;;;;5048776;28;20478;-41
2021/07/31 06:19:42;;;;;;;6.97;4.72;;;16.80;99.90;;;;;;5047681;28;20025;-42
2021/07/31 06:22:09;;;;;;;6.50;4.07;;;16.80;99.90;;;;;;5049231;28;20370;-42
2021/07/31 06:24:35;;;;;;;5.95;4.10;;;16.80;99.90;;;;;;5044944;28;20416;-41
2021/07/31 06:27:00;;;;;;;6.97;4.28;;;16.90;99.90;;;;;;5048903;28;20496;-42
2021/07/31 06:29:26;;;;;;;7.25;4.40;;;17.00;99.90;;;;;;5047858;28;20495;-42
2021/07/31 06:31:51;;;;;;;9.05;4.78;;;17.00;99.90;;;;;;5049031;28;20048;-41
2021/07/31 06:34:18;;;;;;;4.63;3.85;;;17.00;99.90;;;;;;5047620;28;20135;-43
2021/07/31 06:36:43;;;;;;;7.60;4.00;;;17.00;99.90;;;;;;5048352;28;20477;-42
2021/07/31 06:39:10;;;;;;;9.38;3.58;;;17.00;99.90;;;;;;5048995;28;20051;-43
2021/07/31 06:41:35;;;;;;;7.15;4.38;;;17.00;99.90;;;;;;5047284;28;20507;-43
2021/07/31 06:44:01;;;;;;;10.02;4.40;;;17.00;99.90;;;;;;5048305;28;20021;-42
2021/07/31 06:46:28;;;;;;;7.40;4.28;;;17.00;99.90;;;;;;5047673;28;20021;-44
2021/07/31 06:48:54;;;;;;;6.57;3.60;;;17.00;99.90;;;;;;5048768;28;20017;-43
2021/07/31 06:51:21;;;;;;;7.15;3.88;;;17.10;99.90;;;;;;5048096;28;20475;-42
2021/07/31 06:53:48;;;;;;;9.85;4.28;;;17.10;99.90;;;;;;5048348;28;20028;-43
2021/07/31 06:56:14;;;;;;;6.13;4.30;;;17.10;99.90;;;;;;5048524;28;20060;-43
2021/07/31 06:58:39;;;;;;;6.55;3.53;;;17.10;99.90;;;;;;5047291;28;20392;-43
2021/07/31 07:01:09;;;;;;;5.30;3.55;;;17.10;99.90;;;;;;5048070;28;20036;-43
2021/07/31 07:03:35;;;;;;;4.53;3.28;;;17.20;99.90;;;;;;5047123;28;20412;-42
2021/07/31 07:06:04;;;;;;;3.97;3.17;;;17.20;99.90;;;;;;5048148;28;20550;-42
2021/07/31 07:08:30;;;;;;;8.90;4.03;;;17.20;99.90;;;;;;5046653;28;20116;-41
2021/07/31 07:10:56;;;;;;;5.30;3.15;;;17.30;99.90;;;;;;5048644;28;20148;-42
2021/07/31 07:13:21;;;;;;;5.03;3.72;;;17.30;99.90;;;;;;5048332;28;20115;-42
2021/07/31 07:15:49;;;;;;;5.50;3.55;;;17.30;99.90;;;;;;5047826;28;20048;-42
2021/07/31 07:18:15;;;;;;;6.28;3.67;;;17.20;99.90;;;;;;5048914;28;20512;-43
2021/07/31 07:20:40;;;;;;;5.22;4.20;;;17.30;99.90;;;;;;5047743;28;20067;-42
2021/07/31 07:23:06;;;;;;;5.93;4.18;;;17.30;99.90;;;;;;5047738;28;20021;-43
2021/07/31 07:25:32;;;;;;;4.22;2.97;;;17.30;99.90;;;;;;5047303;28;20036;-43
2021/07/31 07:27:58;;;;;;;3.97;3.42;;;17.40;99.90;;;;;;5048535;28;20115;-42
2021/07/31 07:30:24;;;;;;;5.38;3.42;;;17.50;99.90;;;;;;5046960;28;20031;-41
2021/07/31 07:32:51;;;;;;;8.70;3.65;;;17.50;99.90;;;;;;5048633;28;20033;-43
2021/07/31 07:35:17;;;;;;;5.38;3.80;;;17.40;99.90;;;;;;5047996;28;20041;-42
2021/07/31 07:37:42;;;;;;;6.10;3.25;;;17.40;99.90;;;;;;5047028;28;20021;-41
2021/07/31 07:40:08;;;;;;;3.80;3.10;;;17.40;99.90;;;;;;5047933;28;20051;-43
2021/07/31 07:42:34;;;;;;;6.35;3.20;;;17.50;99.90;;;;;;5046793;28;20111;-42
2021/07/31 07:44:59;;;;;;;5.38;3.15;;;17.50;99.90;;;;;;5047582;28;20112;-44
2021/07/31 07:47:25;;;;;;;3.40;2.60;;;17.50;99.90;;;;;;5046692;28;20021;-43
2021/07/31 07:49:50;;;;;;;5.55;3.83;;;17.50;99.90;;;;;;5047610;28;20024;-41
2021/07/31 07:52:22;;;;;;;5.63;3.85;;;17.50;99.90;;;;;;5047781;28;20163;-45
2021/07/31 07:54:57;;;;;;;5.20;4.00;;;17.40;99.90;;;;;;5048348;28;20029;-43
2021/07/31 07:57:31;;;;;;;6.43;5.00;;;17.40;99.90;;;;;;5046343;28;20033;-43
2021/07/31 07:59:57;;;;;;;5.45;4.68;;;17.40;99.90;;;;;;5050901;28;20472;-43
2021/07/31 08:02:22;;;;;;;9.38;6.07;;;17.40;99.90;;;;;;5050402;28;20025;-43
2021/07/31 08:04:48;;;;;;;6.57;5.82;;;17.50;99.90;;;;;;5051369;28;20029;-43
2021/07/31 08:07:13;;;;;;;8.43;5.95;;;17.60;99.90;;;;;;5051290;28;20112;-42
2021/07/31 08:09:39;;;;;;;7.78;5.43;;;17.70;99.90;;;;;;5049898;28;20039;-42
2021/07/31 08:12:06;;;;;;;6.57;5.50;;;17.70;99.90;;;;;;5050032;28;20658;-42
2021/07/31 08:14:32;;;;;;;6.60;5.57;;;17.80;99.90;;;;;;5050424;28;20376;-42
2021/07/31 08:16:57;;;;;;;6.05;5.43;;;17.80;99.90;;;;;;5052105;28;20523;-43
2021/07/31 08:19:24;;;;;;;6.75;5.35;;;17.80;99.90;;;;;;5049540;28;20503;-42
2021/07/31 08:21:49;;;;;;;7.85;5.28;;;17.80;99.90;;;;;;5050262;28;20040;-40
2021/07/31 08:24:16;;;;;;;9.57;6.13;;;17.90;99.90;;;;;;5051301;28;20021;-42
2021/07/31 08:26:43;;;;;;;7.63;6.20;;;18.00;99.90;;;;;;5049715;28;20059;-43
2021/07/31 08:29:10;;;;;;;7.65;5.60;;;18.10;99.90;;;;;;5040037;28;20021;-41
2021/07/31 08:31:38;;;;;;;7.57;6.00;;;18.20;99.90;;;;;;5050126;28;20392;-41
2021/07/31 08:34:03;;;;;;;7.00;5.75;;;18.20;99.90;;;;;;5049469;28;20037;-42
2021/07/31 08:36:29;;;;;;;6.95;5.40;;;18.30;99.90;;;;;;5049814;28;20074;-42
2021/07/31 08:38:56;;;;;;;9.05;5.82;;;18.30;99.90;;;;;;5050514;28;20118;-40
2021/07/31 08:41:22;;;;;;;6.55;5.85;;;18.30;99.90;;;;;;5049131;28;20025;-38
2021/07/31 08:43:47;;;;;;;8.13;6.13;;;18.20;99.90;;;;;;5049856;28;20029;-43
2021/07/31 08:46:15;;;;;;;7.40;5.65;;;18.20;99.90;;;;;;5048957;28;20027;-41
2021/07/31 08:48:51;;;;;;;7.03;6.00;;;18.10;99.90;;;;;;5048315;28;20208;-43
2021/07/31 08:51:20;;;;;;;7.43;5.03;;;18.10;99.90;;;;;;5029975;28;20182;-42
2021/07/31 08:53:47;;;;;;;8.18;5.40;;;18.00;99.90;;;;;;5043721;28;20544;-39
2021/07/31 08:56:13;;;;;;;8.30;5.75;;;18.00;99.90;;;;;;5050381;28;20029;-43
2021/07/31 08:58:40;;;;;;;10.45;5.35;;;17.90;99.90;;;;;;5049350;28;20041;-43
2021/07/31 09:01:06;;;;;;;8.32;5.03;;;17.90;99.90;;;;;;5049508;28;20044;-43
2021/07/31 09:03:47;;;;;;;5.70;5.07;;;17.90;99.90;;;;;;5049105;28;20051;-42
2021/07/31 09:06:31;;;;;;;9.07;4.40;;;17.80;99.90;;;;;;5050600;28;20179;-40
2021/07/31 09:08:58;;;;;;;7.55;4.75;;;17.70;99.90;;;;;;5049564;28;20028;-42
2021/07/31 09:11:27;;;;;;;8.82;4.70;;;17.70;99.90;;;;;;5048916;28;20116;-42
2021/07/31 09:14:19;;;;;;;6.03;4.35;;;17.70;99.90;;;;;;5050002;28;20112;-43
2021/07/31 09:16:48;;;;;;;6.73;4.23;;;17.60;99.90;;;;;;5048873;28;20036;-42
2021/07/31 09:19:16;;;;;;;5.78;4.40;;;17.50;99.90;;;;;;5050203;28;20107;-42
2021/07/31 09:21:42;;;;;;;4.70;3.70;;;17.50;99.90;;;;;;5048415;28;20029;-43
2021/07/31 09:24:17;;;;;;;4.90;3.70;;;17.40;99.90;;;;;;5049749;28;20043;-41
2021/07/31 09:26:49;;;;;;;7.55;5.50;;;17.40;99.90;;;;;;5049187;28;20052;-43
2021/07/31 09:29:31;;;;;;;4.55;4.13;;;17.40;99.90;;;;;;5049623;28;20021;-40
2021/07/31 09:32:06;;;;;;;6.10;4.10;;;17.40;99.90;;;;;;5045806;28;20079;-42
2021/07/31 09:34:36;;;;;;;6.72;4.25;;;17.30;99.90;;;;;;5045196;28;20064;-42
2021/07/31 09:37:27;;;;;;;7.30;4.75;;;17.30;99.90;;;;;;5047375;28;20086;-42
2021/07/31 09:40:00;;;;;;;5.43;4.45;;;17.20;99.90;;;;;;5046885;28;20020;-41
2021/07/31 09:42:34;;;;;;;7.53;4.43;;;17.20;99.90;;;;;;5048395;28;20124;-42
2021/07/31 09:45:02;;;;;;;4.68;4.05;;;17.40;99.90;;;;;;5045210;28;20051;-41
2021/07/31 09:47:31;;;;;;;5.75;4.15;;;17.50;99.90;;;;;;5048136;28;20375;-41
2021/07/31 09:49:58;;;;;;;5.13;4.30;;;17.70;99.90;;;;;;5048775;28;20104;-42
2021/07/31 09:52:25;;;;;;;4.22;3.53;;;17.90;99.90;;;;;;5049345;28;20123;-42
2021/07/31 09:54:52;;;;;;;4.07;3.50;;;18.00;99.90;;;;;;5049216;28;20036;-42
2021/07/31 09:57:18;;;;;;;5.22;4.28;;;18.10;99.90;;;;;;5047703;28;20037;-41
2021/07/31 09:59:50;;;;;;;3.78;3.38;;;18.20;99.90;;;;;;5046258;28;20056;-41
2021/07/31 10:02:21;;;;;;;4.13;3.63;;;18.40;99.90;;;;;;5045037;28;20025;-42
2021/07/31 10:04:48;;;;;;;3.25;2.95;;;18.60;99.90;;;;;;5032967;28;20067;-43
2021/07/31 10:07:15;;;;;;;4.57;3.65;;;18.80;99.90;;;;;;5045777;28;20107;-42
2021/07/31 10:09:49;;;;;;;4.20;3.78;;;19.00;99.90;;;;;;5045018;28;20055;-43
2021/07/31 10:12:17;;;;;;;5.70;3.45;;;19.20;99.90;;;;;;5042506;28;20404;-42
2021/07/31 10:14:44;;;;;;;5.10;3.53;;;19.30;99.90;;;;;;5046112;28;20118;-42
2021/07/31 10:17:11;;;;;;;6.05;3.22;;;19.50;99.90;;;;;;5046556;28;20109;-42
2021/07/31 10:19:43;;;;;;;5.35;4.53;;;19.60;99.90;;;;;;5046115;28;20031;-42
2021/07/31 10:22:10;;;;;;;3.60;3.28;;;19.70;99.90;;;;;;5047754;28;20033;-42
2021/07/31 10:24:54;;;;;;;3.72;3.30;;;19.70;99.90;;;;;;5046623;28;20029;-42
2021/07/31 10:27:24;;;;;;;3.90;3.55;;;19.50;99.90;;;;;;5048608;28;20029;-44
2021/07/31 10:29:52;;;;;;;7.25;3.80;;;19.30;99.90;;;;;;5047116;28;20104;-42
2021/07/31 10:32:32;;;;;;;4.50;3.40;;;19.10;99.90;;;;;;5049062;28;20096;-41
2021/07/31 10:35:08;;;;;;;5.07;3.78;;;18.80;99.90;;;;;;5049011;28;20057;-43
2021/07/31 10:37:34;;;;;;;5.85;4.20;;;18.60;99.90;;;;;;5047352;28;20110;-43
2021/07/31 10:40:11;;;;;;;6.05;4.53;;;18.40;99.90;;;;;;5048677;28;20057;-43
2021/07/31 10:42:52;;;;;;;6.20;3.97;;;18.20;99.90;;;;;;5047460;28;20028;-42
2021/07/31 10:45:23;;;;;;;6.68;4.60;;;18.00;99.90;;;;;;5047805;28;20025;-42
2021/07/31 10:47:55;;;;;;;7.32;4.68;;;17.80;99.90;;;;;;5047926;28;20025;-42
2021/07/31 10:50:27;;;;;;;;;;;17.70;99.90;;;;;;5048614;28;20025;-41
2021/07/31 10:53:10;;;;;;;5.55;4.05;;;17.60;99.90;;;;;;5047545;28;19999;-42
2021/07/31 10:55:36;;;;;;;5.85;4.13;;;17.60;99.90;;;;;;5047207;28;20040;-44
2021/07/31 10:58:12;;;;;;;5.68;3.88;;;17.80;99.90;;;;;;5047762;28;20021;-44
2021/07/31 11:00:39;;;;;;;4.88;3.58;;;18.00;99.90;;;;;;5026485;28;20200;-40
2021/07/31 11:03:25;;;;;;;4.90;2.80;;;18.10;99.90;;;;;;5043229;28;20108;-42
2021/07/31 11:06:03;;;;;;;3.15;2.40;;;18.10;99.90;;;;;;5027566;28;20025;-43
2021/07/31 11:08:32;;;;;;;2.78;1.83;;;18.00;99.90;;;;;;5043423;28;20033;-43
2021/07/31 11:11:00;;;;;;;3.78;2.33;;;17.90;99.90;;;;;;5047593;28;20347;-42
2021/07/31 11:13:28;;;;;;;3.88;2.15;;;17.80;99.90;;;;;;5047173;28;20060;-42
2021/07/31 11:15:58;;;;;;;2.22;2.03;;;17.80;99.90;;;;;;5046705;28;20045;-45
2021/07/31 11:18:24;;;;;;;3.45;2.00;;;17.80;99.90;;;;;;5047180;28;20032;-43
2021/07/31 11:20:50;;;;;;;3.80;2.10;;;17.90;99.90;;;;;;5046564;28;20108;-43
2021/07/31 11:23:18;;;;;;;1.92;1.80;;;17.90;99.90;;;;;;5047144;28;20456;-44
2021/07/31 11:25:43;;;;;;;3.47;1.90;;;17.90;99.90;;;;;;5045764;28;20035;-43
2021/07/31 11:28:12;;;;;;;1.92;1.77;;;17.90;99.90;;;;;;5046759;28;20108;-44
2021/07/31 11:30:43;;;;;;;2.38;1.90;;;17.90;99.90;;;;;;5046669;28;20049;-42
2021/07/31 11:33:35;;;;;;;2.70;2.20;;;17.90;99.90;;;;;;5045795;28;20017;-41
2021/07/31 11:36:13;;;;;;;2.87;1.77;;;17.90;99.90;;;;;;5049048;28;20037;-42
2021/07/31 11:38:40;;;;;;;3.90;2.25;;;17.90;99.90;;;;;;5050369;28;20052;-42
2021/07/31 11:41:11;;;;;;;3.58;2.70;;;17.90;99.90;;;;;;5052141;28;20025;-43
2021/07/31 11:43:58;;;;;;;3.85;2.70;;;17.90;99.90;;;;;;5050574;28;20038;-43
2021/07/31 11:46:49;;;;;;;4.22;2.90;;;18.00;99.90;;;;;;5051261;28;20496;-43
2021/07/31 11:49:33;;;;;;;3.90;3.10;;;18.10;99.90;;;;;;5049531;28;20508;-41
2021/07/31 11:52:03;;;;;;;6.15;3.55;;;18.20;99.90;;;;;;5051923;28;20102;-41
2021/07/31 11:54:30;;;;;;;5.25;3.22;;;18.20;99.90;;;;;;5051676;28;20354;-40
2021/07/31 11:56:57;;;;;;;4.15;2.97;;;18.30;99.90;;;;;;5051668;28;20033;-40
2021/07/31 11:59:27;;;;;;;4.45;3.47;;;18.30;99.90;;;;;;5050663;28;20025;-41
2021/07/31 12:01:57;;;;;;;6.68;3.45;;;18.20;99.90;;;;;;5051507;28;20029;-41
2021/07/31 12:04:42;;;;;;;5.18;3.47;;;18.30;99.90;;;;;;5050164;28;20055;-42
2021/07/31 12:07:09;;;;;;;6.22;4.40;;;18.30;99.90;;;;;;5051297;28;20083;-42
2021/07/31 12:09:34;;;;;;;5.97;3.80;;;18.50;99.90;;;;;;5050526;28;20010;-42
2021/07/31 12:12:00;;;;;;;6.53;4.03;;;18.60;99.90;;;;;;5050846;28;20028;-43
2021/07/31 12:14:40;;;;;;;5.05;3.78;;;18.80;99.90;;;;;;5049852;28;20101;-42
2021/07/31 12:17:17;;;;;;;6.38;3.70;;;19.00;99.90;;;;;;5051599;28;20033;-44
2021/07/31 12:19:57;;;;;;;4.57;3.88;;;19.30;99.90;;;;;;5049612;28;20509;-42
2021/07/31 12:22:30;;;;;;;5.38;3.65;;;19.50;99.90;;;;;;5050989;28;20029;-42
2021/07/31 12:25:12;;;;;;;5.82;4.00;;;19.70;99.90;;;;;;5050209;28;20431;-42
2021/07/31 12:27:58;;;;;;;7.07;4.75;;;19.90;99.90;;;;;;5050178;28;20031;-41
2021/07/31 12:30:45;;;;;;;4.32;3.65;;;20.10;99.90;;;;;;5050329;28;20013;-42
2021/07/31 12:33:19;;;;;;;6.63;3.78;;;20.10;99.90;;;;;;5049593;28;20120;-42
2021/07/31 12:35:57;;;;;;;4.05;3.65;;;20.10;99.90;;;;;;5045235;28;20128;-41
2021/07/31 12:38:33;;;;;;;5.57;4.00;;;20.00;99.90;;;;;;5045646;28;20553;-44
2021/07/31 12:41:01;;;;;;;4.55;4.00;;;19.90;99.90;;;;;;5050130;28;20056;-40
2021/07/31 12:43:33;;;;;;;4.72;4.10;;;19.60;99.90;;;;;;5049659;28;20028;-38
2021/07/31 12:46:08;;;;;;;5.97;3.83;;;19.20;99.90;;;;;;5044161;28;20021;-41
2021/07/31 12:48:34;;;;;;;3.63;3.25;;;18.80;99.90;;;;;;5048535;28;20039;-42
2021/07/31 12:51:02;;;;;;;3.13;2.83;;;18.50;99.90;;;;;;5047497;28;20017;-43